TS19 weather

Public forecast

Using degrees Fahrenheit for public forecast. Weather courtesy of forecast.io.

Closest aviation weather report (METAR) to Gws Inc Construction Heliport

Closest report is William P Hobby Airport, 6.7 nm (12.5 km) ESE. Retrieved 2020/08/11 00:53 UTC (10 minutes ago):

KHOU 110053Z 16011KT 10SM FEW035 31/24 A2997 RMK AO2 SLP153 T03110239

Closest aviation forecast (TAF) to Gws Inc Construction Heliport

Closest forecast is William P Hobby Airport, 6.7 nm (12.5 km) ESE. Retrieved 2020-08-11 00:36 UTC (27 minutes ago):

TAF KHOU 102335Z 1100/1124 16009KT P6SM FEW035 FM110600 VRB03KT P6SM FEW030 FM111400 20005KT P6SM SCT035 FM111700 17011KT P6SM SCT040